Huvudsida
METAR-TAF:

METAR-TAF

Flygplatser :

Ulan Bator, Mongoliet

Djingis khans internationella flygplats

latitud: 47-55N, longitud: 106-52E, höjd: 1306 m

Aktuellt väderrapport

Denna rapport gjordes för 28 minuter sedan, klockan 00:30 UTC
Stilla vind
Temperatur -32°C
Fuktighet 67%
Tryck 1014 hPa
Sikt: 5000 m
rök

METAR: ZMUB 200030Z 00000MPS 5000NW FU NSC M32/M36 Q1014 NOSIG RMK QFE653.8 65 NW MO

Tid: 08:58 (00:58 UTC)

Väderprognos

Denna rapport gjordes för 2 timmar och 18 minuter sedan, klockan 22:40 UTC
Prognos gäller från 20 kl. 00 UTC till 21 kl. 06 UTC
Vind 4 kt varierande vindriktning
Sikt: 6000 m
Spridda moln på en höjd av 10000 ft
Blir
från 20 kl. 01 UTC till 20 kl. 03 UTC
Sikt: 3000 m
rök
Blir
från 20 kl. 05 UTC till 20 kl. 07 UTC
Sikt: 6000 m

TAF: ZMUB 192240Z 2000/2106 VRB02MPS 6000 SCT100 TXM21/2007Z TNM36/2022Z BECMG 2001/2003 3000 FU BECMG 2005/2007 6000

Aktuella väderrapporter och prognoser från 4000 flygplatser (METAR- och TAF-rapporter).

De tillgängliga stationerna syns som gula och röda prickar på kartan.

För musen över prickarna för att se namnen på stationerna.

Klicka sedan för att få väderrapporter och prognoser.

För att ändra kartan: Klicka på de gröna knapparna med ett svart kors på för att zooma in; den gröna knappen med ett streck på för att zooma ut; eller på de gröna pilarna för angränsande kartor.


METAR-TAF: